sensor_id;sensor_type;location;lat;lon;timestamp;pressure;altitude;pressure_sealevel;temperature
19666;BMP180;9980;51.020;7.772;2023-05-07T00:00:49;97581.00;;;18.40
19666;BMP180;9980;51.020;7.772;2023-05-07T00:03:15;97576.00;;;18.40
19666;BMP180;9980;51.020;7.772;2023-05-07T00:05:42;97578.00;;;18.40
19666;BMP180;9980;51.020;7.772;2023-05-07T00:08:08;97581.00;;;18.40
19666;BMP180;9980;51.020;7.772;2023-05-07T00:10:34;97575.00;;;18.30
19666;BMP180;9980;51.020;7.772;2023-05-07T00:13:01;97576.00;;;18.30
19666;BMP180;9980;51.020;7.772;2023-05-07T00:15:27;97561.00;;;18.30
19666;BMP180;9980;51.020;7.772;2023-05-07T00:17:53;97583.00;;;18.30
19666;BMP180;9980;51.020;7.772;2023-05-07T00:20:20;97575.00;;;18.30
19666;BMP180;9980;51.020;7.772;2023-05-07T00:22:46;97586.00;;;18.30
19666;BMP180;9980;51.020;7.772;2023-05-07T00:25:12;97579.00;;;18.20
19666;BMP180;9980;51.020;7.772;2023-05-07T00:27:38;97579.00;;;18.20
19666;BMP180;9980;51.020;7.772;2023-05-07T00:30:06;97576.00;;;18.20
19666;BMP180;9980;51.020;7.772;2023-05-07T00:32:32;97580.00;;;18.20
19666;BMP180;9980;51.020;7.772;2023-05-07T00:34:58;97572.00;;;18.20
19666;BMP180;9980;51.020;7.772;2023-05-07T00:37:24;97569.00;;;18.20
19666;BMP180;9980;51.020;7.772;2023-05-07T00:39:51;97571.00;;;18.10
19666;BMP180;9980;51.020;7.772;2023-05-07T00:42:17;97571.00;;;18.10
19666;BMP180;9980;51.020;7.772;2023-05-07T00:44:44;97573.00;;;18.10
19666;BMP180;9980;51.020;7.772;2023-05-07T00:47:11;97566.00;;;18.10
19666;BMP180;9980;51.020;7.772;2023-05-07T00:49:44;97559.00;;;18.10
19666;BMP180;9980;51.020;7.772;2023-05-07T00:52:16;97560.00;;;18.00
19666;BMP180;9980;51.020;7.772;2023-05-07T00:54:43;97560.00;;;18.10
19666;BMP180;9980;51.020;7.772;2023-05-07T00:57:10;97562.00;;;18.10
19666;BMP180;9980;51.020;7.772;2023-05-07T00:59:37;97564.00;;;18.00
19666;BMP180;9980;51.020;7.772;2023-05-07T01:02:04;97560.00;;;18.00
19666;BMP180;9980;51.020;7.772;2023-05-07T01:04:30;97544.00;;;18.00
19666;BMP180;9980;51.020;7.772;2023-05-07T01:06:59;97551.00;;;18.00
19666;BMP180;9980;51.020;7.772;2023-05-07T01:09:28;97552.00;;;18.00
19666;BMP180;9980;51.020;7.772;2023-05-07T01:11:56;97550.00;;;18.00
19666;BMP180;9980;51.020;7.772;2023-05-07T01:14:24;97554.00;;;18.00
19666;BMP180;9980;51.020;7.772;2023-05-07T01:16:53;97556.00;;;18.00
19666;BMP180;9980;51.020;7.772;2023-05-07T01:19:22;97546.00;;;18.00
19666;BMP180;9980;51.020;7.772;2023-05-07T01:21:49;97565.00;;;18.00
19666;BMP180;9980;51.020;7.772;2023-05-07T01:24:18;97560.00;;;18.00
19666;BMP180;9980;51.020;7.772;2023-05-07T01:26:45;97558.00;;;17.90
19666;BMP180;9980;51.020;7.772;2023-05-07T01:29:13;97558.00;;;17.90
19666;BMP180;9980;51.020;7.772;2023-05-07T01:31:42;97570.00;;;17.90
19666;BMP180;9980;51.020;7.772;2023-05-07T01:34:12;97561.00;;;17.90
19666;BMP180;9980;51.020;7.772;2023-05-07T01:36:43;97567.00;;;17.90
19666;BMP180;9980;51.020;7.772;2023-05-07T01:39:10;97562.00;;;17.90
19666;BMP180;9980;51.020;7.772;2023-05-07T01:41:37;97555.00;;;17.90
19666;BMP180;9980;51.020;7.772;2023-05-07T01:44:05;97560.00;;;17.90
19666;BMP180;9980;51.020;7.772;2023-05-07T01:46:33;97569.00;;;17.90
19666;BMP180;9980;51.020;7.772;2023-05-07T01:49:00;97563.00;;;17.90
19666;BMP180;9980;51.020;7.772;2023-05-07T01:51:26;97556.00;;;17.90
19666;BMP180;9980;51.020;7.772;2023-05-07T01:53:53;97553.00;;;17.90
19666;BMP180;9980;51.020;7.772;2023-05-07T01:56:20;97554.00;;;17.90
19666;BMP180;9980;51.020;7.772;2023-05-07T01:58:48;97545.00;;;17.80
19666;BMP180;9980;51.020;7.772;2023-05-07T02:01:14;97561.00;;;17.80
19666;BMP180;9980;51.020;7.772;2023-05-07T02:03:41;97547.00;;;17.80
19666;BMP180;9980;51.020;7.772;2023-05-07T02:06:15;97552.00;;;17.80
19666;BMP180;9980;51.020;7.772;2023-05-07T02:08:42;97546.00;;;17.80
19666;BMP180;9980;51.020;7.772;2023-05-07T02:11:10;97540.00;;;17.80
19666;BMP180;9980;51.020;7.772;2023-05-07T02:13:36;97535.00;;;17.80
19666;BMP180;9980;51.020;7.772;2023-05-07T02:16:03;97539.00;;;17.80
19666;BMP180;9980;51.020;7.772;2023-05-07T02:18:29;97536.00;;;17.80
19666;BMP180;9980;51.020;7.772;2023-05-07T02:20:56;97533.00;;;17.80
19666;BMP180;9980;51.020;7.772;2023-05-07T02:23:22;97539.00;;;17.70
19666;BMP180;9980;51.020;7.772;2023-05-07T02:25:49;97546.00;;;17.70
19666;BMP180;9980;51.020;7.772;2023-05-07T02:28:15;97546.00;;;17.70
19666;BMP180;9980;51.020;7.772;2023-05-07T02:30:48;97553.00;;;17.70
19666;BMP180;9980;51.020;7.772;2023-05-07T02:33:14;97547.00;;;17.70
19666;BMP180;9980;51.020;7.772;2023-05-07T02:35:41;97547.00;;;17.70
19666;BMP180;9980;51.020;7.772;2023-05-07T02:38:07;97545.00;;;17.70
19666;BMP180;9980;51.020;7.772;2023-05-07T02:40:34;97557.00;;;17.70
19666;BMP180;9980;51.020;7.772;2023-05-07T02:43:05;97555.00;;;17.70
19666;BMP180;9980;51.020;7.772;2023-05-07T02:45:32;97551.00;;;17.70
19666;BMP180;9980;51.020;7.772;2023-05-07T02:48:00;97544.00;;;17.70
19666;BMP180;9980;51.020;7.772;2023-05-07T02:50:26;97536.00;;;17.60
19666;BMP180;9980;51.020;7.772;2023-05-07T02:52:54;97538.00;;;17.60
19666;BMP180;9980;51.020;7.772;2023-05-07T02:55:20;97542.00;;;17.60
19666;BMP180;9980;51.020;7.772;2023-05-07T02:57:47;97553.00;;;17.60
19666;BMP180;9980;51.020;7.772;2023-05-07T03:00:18;97544.00;;;17.60
19666;BMP180;9980;51.020;7.772;2023-05-07T03:02:53;97543.00;;;17.60
19666;BMP180;9980;51.020;7.772;2023-05-07T03:05:19;97539.00;;;17.60
19666;BMP180;9980;51.020;7.772;2023-05-07T03:07:45;97546.00;;;17.60
19666;BMP180;9980;51.020;7.772;2023-05-07T03:10:14;97554.00;;;17.60
19666;BMP180;9980;51.020;7.772;2023-05-07T03:12:40;97566.00;;;17.60
19666;BMP180;9980;51.020;7.772;2023-05-07T03:15:09;97535.00;;;17.50
19666;BMP180;9980;51.020;7.772;2023-05-07T03:17:36;97539.00;;;17.60
19666;BMP180;9980;51.020;7.772;2023-05-07T03:20:03;97540.00;;;17.50
19666;BMP180;9980;51.020;7.772;2023-05-07T03:22:31;97533.00;;;17.50
19666;BMP180;9980;51.020;7.772;2023-05-07T03:24:57;97539.00;;;17.50
19666;BMP180;9980;51.020;7.772;2023-05-07T03:27:24;97537.00;;;17.50
19666;BMP180;9980;51.020;7.772;2023-05-07T03:29:52;97534.00;;;17.50
19666;BMP180;9980;51.020;7.772;2023-05-07T03:32:18;97523.00;;;17.50
19666;BMP180;9980;51.020;7.772;2023-05-07T03:34:45;97537.00;;;17.50
19666;BMP180;9980;51.020;7.772;2023-05-07T03:37:12;97535.00;;;17.50
19666;BMP180;9980;51.020;7.772;2023-05-07T03:39:38;97525.00;;;17.40
19666;BMP180;9980;51.020;7.772;2023-05-07T03:42:04;97539.00;;;17.40
19666;BMP180;9980;51.020;7.772;2023-05-07T03:44:32;97544.00;;;17.40
19666;BMP180;9980;51.020;7.772;2023-05-07T03:46:59;97535.00;;;17.40
19666;BMP180;9980;51.020;7.772;2023-05-07T03:49:25;97533.00;;;17.40
19666;BMP180;9980;51.020;7.772;2023-05-07T03:51:52;97521.00;;;17.40
19666;BMP180;9980;51.020;7.772;2023-05-07T03:54:18;97534.00;;;17.40
19666;BMP180;9980;51.020;7.772;2023-05-07T03:56:46;97542.00;;;17.40
19666;BMP180;9980;51.020;7.772;2023-05-07T03:59:13;97537.00;;;17.40
19666;BMP180;9980;51.020;7.772;2023-05-07T04:01:40;97541.00;;;17.40
19666;BMP180;9980;51.020;7.772;2023-05-07T04:04:07;97536.00;;;17.40
19666;BMP180;9980;51.020;7.772;2023-05-07T04:06:35;97539.00;;;17.40
19666;BMP180;9980;51.020;7.772;2023-05-07T04:09:02;97549.00;;;17.30
19666;BMP180;9980;51.020;7.772;2023-05-07T04:11:28;97546.00;;;17.30
19666;BMP180;9980;51.020;7.772;2023-05-07T04:13:55;97554.00;;;17.30
19666;BMP180;9980;51.020;7.772;2023-05-07T04:16:22;97549.00;;;17.30
19666;BMP180;9980;51.020;7.772;2023-05-07T04:18:49;97546.00;;;17.30
19666;BMP180;9980;51.020;7.772;2023-05-07T04:21:17;97549.00;;;17.30
19666;BMP180;9980;51.020;7.772;2023-05-07T04:23:47;97560.00;;;17.30
19666;BMP180;9980;51.020;7.772;2023-05-07T04:26:15;97567.00;;;17.30
19666;BMP180;9980;51.020;7.772;2023-05-07T04:28:43;97550.00;;;17.30
19666;BMP180;9980;51.020;7.772;2023-05-07T04:31:10;97558.00;;;17.30
19666;BMP180;9980;51.020;7.772;2023-05-07T04:33:37;97541.00;;;17.30
19666;BMP180;9980;51.020;7.772;2023-05-07T04:36:05;97553.00;;;17.40
19666;BMP180;9980;51.020;7.772;2023-05-07T04:38:37;97554.00;;;17.40
19666;BMP180;9980;51.020;7.772;2023-05-07T04:41:08;97547.00;;;17.40
19666;BMP180;9980;51.020;7.772;2023-05-07T04:43:38;97550.00;;;17.40
19666;BMP180;9980;51.020;7.772;2023-05-07T04:46:04;97542.00;;;17.40
19666;BMP180;9980;51.020;7.772;2023-05-07T04:48:31;97544.00;;;17.40
19666;BMP180;9980;51.020;7.772;2023-05-07T04:50:59;97546.00;;;17.40
19666;BMP180;9980;51.020;7.772;2023-05-07T04:53:25;97546.00;;;17.40
19666;BMP180;9980;51.020;7.772;2023-05-07T04:55:57;97549.00;;;17.40
19666;BMP180;9980;51.020;7.772;2023-05-07T04:58:27;97549.00;;;17.50
19666;BMP180;9980;51.020;7.772;2023-05-07T05:00:53;97549.00;;;17.50
19666;BMP180;9980;51.020;7.772;2023-05-07T05:03:19;97552.00;;;17.50
19666;BMP180;9980;51.020;7.772;2023-05-07T05:05:49;97551.00;;;17.50
19666;BMP180;9980;51.020;7.772;2023-05-07T05:08:15;97554.00;;;17.50
19666;BMP180;9980;51.020;7.772;2023-05-07T05:10:42;97563.00;;;17.60
19666;BMP180;9980;51.020;7.772;2023-05-07T05:13:10;97560.00;;;17.60
19666;BMP180;9980;51.020;7.772;2023-05-07T05:15:39;97565.00;;;17.60
19666;BMP180;9980;51.020;7.772;2023-05-07T05:18:05;97568.00;;;17.70
19666;BMP180;9980;51.020;7.772;2023-05-07T05:20:32;97568.00;;;17.70
19666;BMP180;9980;51.020;7.772;2023-05-07T05:22:58;97570.00;;;17.70
19666;BMP180;9980;51.020;7.772;2023-05-07T05:25:24;97572.00;;;17.80
19666;BMP180;9980;51.020;7.772;2023-05-07T05:27:51;97573.00;;;17.80
19666;BMP180;9980;51.020;7.772;2023-05-07T05:30:17;97568.00;;;17.90
19666;BMP180;9980;51.020;7.772;2023-05-07T05:32:45;97576.00;;;17.90
19666;BMP180;9980;51.020;7.772;2023-05-07T05:35:12;97572.00;;;18.00
19666;BMP180;9980;51.020;7.772;2023-05-07T05:37:39;97558.00;;;18.00
19666;BMP180;9980;51.020;7.772;2023-05-07T05:40:07;97581.00;;;18.10
19666;BMP180;9980;51.020;7.772;2023-05-07T05:42:34;97568.00;;;18.10
19666;BMP180;9980;51.020;7.772;2023-05-07T05:45:00;97579.00;;;18.20
19666;BMP180;9980;51.020;7.772;2023-05-07T05:47:29;97579.00;;;18.20
19666;BMP180;9980;51.020;7.772;2023-05-07T05:49:55;97576.00;;;18.30
19666;BMP180;9980;51.020;7.772;2023-05-07T05:52:22;97573.00;;;18.30
19666;BMP180;9980;51.020;7.772;2023-05-07T05:54:50;97574.00;;;18.40
19666;BMP180;9980;51.020;7.772;2023-05-07T05:57:16;97580.00;;;18.40
19666;BMP180;9980;51.020;7.772;2023-05-07T05:59:45;97578.00;;;18.50
19666;BMP180;9980;51.020;7.772;2023-05-07T06:02:13;97580.00;;;18.60
19666;BMP180;9980;51.020;7.772;2023-05-07T06:04:40;97583.00;;;18.60
19666;BMP180;9980;51.020;7.772;2023-05-07T06:07:06;97582.00;;;18.60
19666;BMP180;9980;51.020;7.772;2023-05-07T06:09:33;97576.00;;;18.70
19666;BMP180;9980;51.020;7.772;2023-05-07T06:12:00;97573.00;;;18.80
19666;BMP180;9980;51.020;7.772;2023-05-07T06:14:28;97583.00;;;18.80
19666;BMP180;9980;51.020;7.772;2023-05-07T06:16:55;97585.00;;;18.90
19666;BMP180;9980;51.020;7.772;2023-05-07T06:19:21;97581.00;;;18.90
19666;BMP180;9980;51.020;7.772;2023-05-07T06:21:52;97588.00;;;19.00
19666;BMP180;9980;51.020;7.772;2023-05-07T06:24:18;97584.00;;;19.10
19666;BMP180;9980;51.020;7.772;2023-05-07T06:26:44;97599.00;;;19.10
19666;BMP180;9980;51.020;7.772;2023-05-07T06:29:12;97588.00;;;19.20
19666;BMP180;9980;51.020;7.772;2023-05-07T06:31:40;97588.00;;;19.30
19666;BMP180;9980;51.020;7.772;2023-05-07T06:34:08;97592.00;;;19.40
19666;BMP180;9980;51.020;7.772;2023-05-07T06:36:37;97592.00;;;19.40
19666;BMP180;9980;51.020;7.772;2023-05-07T06:39:17;97591.00;;;19.50
19666;BMP180;9980;51.020;7.772;2023-05-07T06:41:43;97594.00;;;19.60
19666;BMP180;9980;51.020;7.772;2023-05-07T06:44:21;97593.00;;;19.70
19666;BMP180;9980;51.020;7.772;2023-05-07T06:46:57;97600.00;;;19.80
19666;BMP180;9980;51.020;7.772;2023-05-07T06:49:24;97593.00;;;19.80
19666;BMP180;9980;51.020;7.772;2023-05-07T06:51:50;97582.00;;;19.90
19666;BMP180;9980;51.020;7.772;2023-05-07T06:54:18;97593.00;;;20.00
19666;BMP180;9980;51.020;7.772;2023-05-07T06:56:45;97600.00;;;20.10
19666;BMP180;9980;51.020;7.772;2023-05-07T06:59:11;97604.00;;;20.10
19666;BMP180;9980;51.020;7.772;2023-05-07T07:01:39;97612.00;;;20.20
19666;BMP180;9980;51.020;7.772;2023-05-07T07:04:08;97618.00;;;20.30
19666;BMP180;9980;51.020;7.772;2023-05-07T07:06:35;97619.00;;;20.40
19666;BMP180;9980;51.020;7.772;2023-05-07T07:09:06;97628.00;;;20.50
19666;BMP180;9980;51.020;7.772;2023-05-07T07:11:32;97607.00;;;20.50
19666;BMP180;9980;51.020;7.772;2023-05-07T07:13:59;97614.00;;;20.60
19666;BMP180;9980;51.020;7.772;2023-05-07T07:16:26;97607.00;;;20.70
19666;BMP180;9980;51.020;7.772;2023-05-07T07:18:52;97612.00;;;20.70
19666;BMP180;9980;51.020;7.772;2023-05-07T07:21:19;97616.00;;;20.80
19666;BMP180;9980;51.020;7.772;2023-05-07T07:23:46;97593.00;;;20.80
19666;BMP180;9980;51.020;7.772;2023-05-07T07:26:13;97609.00;;;20.90
19666;BMP180;9980;51.020;7.772;2023-05-07T07:28:44;97607.00;;;20.90
19666;BMP180;9980;51.020;7.772;2023-05-07T07:31:13;97604.00;;;21.00
19666;BMP180;9980;51.020;7.772;2023-05-07T07:33:40;97605.00;;;21.10
19666;BMP180;9980;51.020;7.772;2023-05-07T07:36:07;97609.00;;;21.20
19666;BMP180;9980;51.020;7.772;2023-05-07T07:38:34;97605.00;;;21.30
19666;BMP180;9980;51.020;7.772;2023-05-07T07:41:01;97605.00;;;21.40
19666;BMP180;9980;51.020;7.772;2023-05-07T07:43:28;97615.00;;;21.50
19666;BMP180;9980;51.020;7.772;2023-05-07T07:45:55;97613.00;;;21.50
19666;BMP180;9980;51.020;7.772;2023-05-07T07:48:21;97617.00;;;21.60
19666;BMP180;9980;51.020;7.772;2023-05-07T07:50:49;97610.00;;;21.70
19666;BMP180;9980;51.020;7.772;2023-05-07T07:53:18;97617.00;;;21.80
19666;BMP180;9980;51.020;7.772;2023-05-07T07:55:46;97617.00;;;21.90
19666;BMP180;9980;51.020;7.772;2023-05-07T07:58:15;97615.00;;;21.90
19666;BMP180;9980;51.020;7.772;2023-05-07T08:00:42;97609.00;;;22.00
19666;BMP180;9980;51.020;7.772;2023-05-07T08:03:11;97623.00;;;22.10
19666;BMP180;9980;51.020;7.772;2023-05-07T08:05:43;97632.00;;;22.20
19666;BMP180;9980;51.020;7.772;2023-05-07T08:08:09;97623.00;;;22.20
19666;BMP180;9980;51.020;7.772;2023-05-07T08:10:37;97628.00;;;22.30
19666;BMP180;9980;51.020;7.772;2023-05-07T08:13:11;97621.00;;;22.40
19666;BMP180;9980;51.020;7.772;2023-05-07T08:15:39;97628.00;;;22.40
19666;BMP180;9980;51.020;7.772;2023-05-07T08:18:06;97625.00;;;22.40
19666;BMP180;9980;51.020;7.772;2023-05-07T08:20:33;97627.00;;;22.50
19666;BMP180;9980;51.020;7.772;2023-05-07T08:23:02;97620.00;;;22.60
19666;BMP180;9980;51.020;7.772;2023-05-07T08:25:28;97627.00;;;22.70
19666;BMP180;9980;51.020;7.772;2023-05-07T08:27:57;97623.00;;;22.80
19666;BMP180;9980;51.020;7.772;2023-05-07T08:30:24;97625.00;;;22.90
19666;BMP180;9980;51.020;7.772;2023-05-07T08:32:50;97616.00;;;22.90
19666;BMP180;9980;51.020;7.772;2023-05-07T08:35:17;97619.00;;;23.00
19666;BMP180;9980;51.020;7.772;2023-05-07T08:37:43;97616.00;;;23.10
19666;BMP180;9980;51.020;7.772;2023-05-07T08:40:10;97612.00;;;23.20
19666;BMP180;9980;51.020;7.772;2023-05-07T08:42:41;97613.00;;;23.30
19666;BMP180;9980;51.020;7.772;2023-05-07T08:45:10;97612.00;;;23.40
19666;BMP180;9980;51.020;7.772;2023-05-07T08:47:50;97613.00;;;23.50
19666;BMP180;9980;51.020;7.772;2023-05-07T08:50:20;97613.00;;;23.70
19666;BMP180;9980;51.020;7.772;2023-05-07T08:52:48;97615.00;;;23.80
19666;BMP180;9980;51.020;7.772;2023-05-07T08:55:17;97623.00;;;23.80
19666;BMP180;9980;51.020;7.772;2023-05-07T08:57:43;97626.00;;;23.90
19666;BMP180;9980;51.020;7.772;2023-05-07T09:00:12;97625.00;;;24.00
19666;BMP180;9980;51.020;7.772;2023-05-07T09:02:39;97623.00;;;24.10
19666;BMP180;9980;51.020;7.772;2023-05-07T09:05:07;97622.00;;;24.20
19666;BMP180;9980;51.020;7.772;2023-05-07T09:07:35;97619.00;;;24.30
19666;BMP180;9980;51.020;7.772;2023-05-07T09:10:04;97610.00;;;24.40
19666;BMP180;9980;51.020;7.772;2023-05-07T09:12:32;97627.00;;;24.50
19666;BMP180;9980;51.020;7.772;2023-05-07T09:14:59;97622.00;;;24.60
19666;BMP180;9980;51.020;7.772;2023-05-07T09:17:26;97621.00;;;24.70
19666;BMP180;9980;51.020;7.772;2023-05-07T09:19:53;97621.00;;;24.70
19666;BMP180;9980;51.020;7.772;2023-05-07T09:22:20;97622.00;;;24.80
19666;BMP180;9980;51.020;7.772;2023-05-07T09:24:55;97613.00;;;24.80
19666;BMP180;9980;51.020;7.772;2023-05-07T09:27:25;97625.00;;;24.80
19666;BMP180;9980;51.020;7.772;2023-05-07T09:29:53;97620.00;;;24.90
19666;BMP180;9980;51.020;7.772;2023-05-07T09:32:19;97610.00;;;24.90
19666;BMP180;9980;51.020;7.772;2023-05-07T09:34:46;97618.00;;;25.00
19666;BMP180;9980;51.020;7.772;2023-05-07T09:37:15;97605.00;;;25.00
19666;BMP180;9980;51.020;7.772;2023-05-07T09:39:46;97621.00;;;25.10
19666;BMP180;9980;51.020;7.772;2023-05-07T09:42:15;97616.00;;;25.10
19666;BMP180;9980;51.020;7.772;2023-05-07T09:44:47;97635.00;;;25.10
19666;BMP180;9980;51.020;7.772;2023-05-07T09:47:20;97609.00;;;25.20
19666;BMP180;9980;51.020;7.772;2023-05-07T09:49:56;97613.00;;;25.30
19666;BMP180;9980;51.020;7.772;2023-05-07T09:52:26;97613.00;;;25.40
19666;BMP180;9980;51.020;7.772;2023-05-07T09:54:59;97615.00;;;25.50
19666;BMP180;9980;51.020;7.772;2023-05-07T09:57:28;97605.00;;;25.60
19666;BMP180;9980;51.020;7.772;2023-05-07T10:00:01;97614.00;;;25.60
19666;BMP180;9980;51.020;7.772;2023-05-07T10:02:36;97612.00;;;25.70
19666;BMP180;9980;51.020;7.772;2023-05-07T10:05:04;97611.00;;;25.70
19666;BMP180;9980;51.020;7.772;2023-05-07T10:07:33;97607.00;;;25.80
19666;BMP180;9980;51.020;7.772;2023-05-07T10:10:06;97618.00;;;25.80
19666;BMP180;9980;51.020;7.772;2023-05-07T10:12:38;97609.00;;;25.90
19666;BMP180;9980;51.020;7.772;2023-05-07T10:15:15;97607.00;;;25.90
19666;BMP180;9980;51.020;7.772;2023-05-07T10:17:46;97608.00;;;26.00
19666;BMP180;9980;51.020;7.772;2023-05-07T10:20:13;97610.00;;;26.00
19666;BMP180;9980;51.020;7.772;2023-05-07T10:22:45;97616.00;;;26.10
19666;BMP180;9980;51.020;7.772;2023-05-07T10:25:21;97605.00;;;26.10
19666;BMP180;9980;51.020;7.772;2023-05-07T10:27:50;97608.00;;;26.30
19666;BMP180;9980;51.020;7.772;2023-05-07T10:33:10;97601.00;;;26.50
19666;BMP180;9980;51.020;7.772;2023-05-07T10:35:46;97592.00;;;26.60
19666;BMP180;9980;51.020;7.772;2023-05-07T10:38:15;97603.00;;;26.60
19666;BMP180;9980;51.020;7.772;2023-05-07T10:40:44;97600.00;;;26.70
19666;BMP180;9980;51.020;7.772;2023-05-07T10:43:13;97590.00;;;26.80
19666;BMP180;9980;51.020;7.772;2023-05-07T10:51:36;97606.00;;;26.90
19666;BMP180;9980;51.020;7.772;2023-05-07T10:54:19;97604.00;;;26.90
19666;BMP180;9980;51.020;7.772;2023-05-07T10:56:54;97609.00;;;27.00
19666;BMP180;9980;51.020;7.772;2023-05-07T10:59:34;97597.00;;;26.90
19666;BMP180;9980;51.020;7.772;2023-05-07T11:02:09;97608.00;;;27.00
19666;BMP180;9980;51.020;7.772;2023-05-07T11:05:24;97605.00;;;26.90
19666;BMP180;9980;51.020;7.772;2023-05-07T11:08:09;97605.00;;;26.90
19666;BMP180;9980;51.020;7.772;2023-05-07T11:10:57;97604.00;;;26.80
19666;BMP180;9980;51.020;7.772;2023-05-07T11:13:45;97595.00;;;26.70
19666;BMP180;9980;51.020;7.772;2023-05-07T11:16:23;97606.00;;;26.80
19666;BMP180;9980;51.020;7.772;2023-05-07T11:18:57;97603.00;;;26.70
19666;BMP180;9980;51.020;7.772;2023-05-07T11:21:40;97597.00;;;26.70
19666;BMP180;9980;51.020;7.772;2023-05-07T11:24:42;97606.00;;;26.60
19666;BMP180;9980;51.020;7.772;2023-05-07T11:27:10;97598.00;;;26.60
19666;BMP180;9980;51.020;7.772;2023-05-07T11:29:37;97595.00;;;26.60
19666;BMP180;9980;51.020;7.772;2023-05-07T11:32:08;97603.00;;;26.50
19666;BMP180;9980;51.020;7.772;2023-05-07T11:34:40;97603.00;;;26.50
19666;BMP180;9980;51.020;7.772;2023-05-07T11:37:07;97599.00;;;26.50
19666;BMP180;9980;51.020;7.772;2023-05-07T11:39:44;97610.00;;;26.50
19666;BMP180;9980;51.020;7.772;2023-05-07T11:42:35;97599.00;;;26.30
19666;BMP180;9980;51.020;7.772;2023-05-07T11:45:05;97599.00;;;26.40
19666;BMP180;9980;51.020;7.772;2023-05-07T11:47:33;97605.00;;;26.30
19666;BMP180;9980;51.020;7.772;2023-05-07T11:50:07;97599.00;;;26.30
19666;BMP180;9980;51.020;7.772;2023-05-07T11:52:35;97605.00;;;26.30
19666;BMP180;9980;51.020;7.772;2023-05-07T11:55:03;97604.00;;;26.30
19666;BMP180;9980;51.020;7.772;2023-05-07T11:57:33;97595.00;;;26.30
19666;BMP180;9980;51.020;7.772;2023-05-07T12:00:01;97597.00;;;26.30
19666;BMP180;9980;51.020;7.772;2023-05-07T12:02:38;97597.00;;;26.30
19666;BMP180;9980;51.020;7.772;2023-05-07T12:05:05;97603.00;;;26.30
19666;BMP180;9980;51.020;7.772;2023-05-07T12:07:34;97606.00;;;26.20
19666;BMP180;9980;51.020;7.772;2023-05-07T12:10:06;97597.00;;;26.20
19666;BMP180;9980;51.020;7.772;2023-05-07T12:12:45;97592.00;;;26.20
19666;BMP180;9980;51.020;7.772;2023-05-07T12:15:16;97611.00;;;26.20
19666;BMP180;9980;51.020;7.772;2023-05-07T12:17:43;97600.00;;;26.20
19666;BMP180;9980;51.020;7.772;2023-05-07T12:20:10;97589.00;;;26.20
19666;BMP180;9980;51.020;7.772;2023-05-07T12:22:37;97606.00;;;26.20
19666;BMP180;9980;51.020;7.772;2023-05-07T12:25:03;97602.00;;;26.20
19666;BMP180;9980;51.020;7.772;2023-05-07T12:27:30;97606.00;;;26.20
19666;BMP180;9980;51.020;7.772;2023-05-07T12:29:58;97599.00;;;26.20
19666;BMP180;9980;51.020;7.772;2023-05-07T12:32:25;97597.00;;;26.20
19666;BMP180;9980;51.020;7.772;2023-05-07T12:34:51;97593.00;;;26.20
19666;BMP180;9980;51.020;7.772;2023-05-07T12:37:24;97605.00;;;26.20
19666;BMP180;9980;51.020;7.772;2023-05-07T12:40:08;97590.00;;;26.20
19666;BMP180;9980;51.020;7.772;2023-05-07T12:42:41;97606.00;;;26.20
19666;BMP180;9980;51.020;7.772;2023-05-07T12:47:36;97608.00;;;26.20
19666;BMP180;9980;51.020;7.772;2023-05-07T12:50:06;97621.00;;;26.10
19666;BMP180;9980;51.020;7.772;2023-05-07T12:52:34;97621.00;;;26.10
19666;BMP180;9980;51.020;7.772;2023-05-07T12:55:12;97617.00;;;26.00
19666;BMP180;9980;51.020;7.772;2023-05-07T12:57:43;97622.00;;;25.90
19666;BMP180;9980;51.020;7.772;2023-05-07T13:00:10;97635.00;;;25.90
19666;BMP180;9980;51.020;7.772;2023-05-07T13:02:42;97634.00;;;25.70
19666;BMP180;9980;51.020;7.772;2023-05-07T13:05:10;97646.00;;;25.70
19666;BMP180;9980;51.020;7.772;2023-05-07T13:07:37;97645.00;;;25.60
19666;BMP180;9980;51.020;7.772;2023-05-07T13:10:04;97658.00;;;25.50
19666;BMP180;9980;51.020;7.772;2023-05-07T13:12:31;97649.00;;;25.40
19666;BMP180;9980;51.020;7.772;2023-05-07T13:14:57;97657.00;;;25.30
19666;BMP180;9980;51.020;7.772;2023-05-07T13:17:23;97655.00;;;25.20
19666;BMP180;9980;51.020;7.772;2023-05-07T13:19:50;97659.00;;;25.00
19666;BMP180;9980;51.020;7.772;2023-05-07T13:22:16;97671.00;;;24.90
19666;BMP180;9980;51.020;7.772;2023-05-07T13:24:42;97666.00;;;24.80
19666;BMP180;9980;51.020;7.772;2023-05-07T13:27:09;97662.00;;;24.70
19666;BMP180;9980;51.020;7.772;2023-05-07T13:29:35;97667.00;;;24.60
19666;BMP180;9980;51.020;7.772;2023-05-07T13:32:02;97677.00;;;24.50
19666;BMP180;9980;51.020;7.772;2023-05-07T13:34:28;97689.00;;;24.40
19666;BMP180;9980;51.020;7.772;2023-05-07T13:36:54;97687.00;;;24.30
19666;BMP180;9980;51.020;7.772;2023-05-07T13:39:21;97682.00;;;24.20
19666;BMP180;9980;51.020;7.772;2023-05-07T13:41:47;97674.00;;;24.10
19666;BMP180;9980;51.020;7.772;2023-05-07T13:44:14;97675.00;;;24.00
19666;BMP180;9980;51.020;7.772;2023-05-07T13:46:40;97680.00;;;23.80
19666;BMP180;9980;51.020;7.772;2023-05-07T13:49:06;97680.00;;;23.70
19666;BMP180;9980;51.020;7.772;2023-05-07T13:51:33;97688.00;;;23.60
19666;BMP180;9980;51.020;7.772;2023-05-07T13:53:59;97675.00;;;23.50
19666;BMP180;9980;51.020;7.772;2023-05-07T13:56:25;97686.00;;;23.40
19666;BMP180;9980;51.020;7.772;2023-05-07T13:58:51;97682.00;;;23.30
19666;BMP180;9980;51.020;7.772;2023-05-07T14:01:27;97685.00;;;23.20
19666;BMP180;9980;51.020;7.772;2023-05-07T14:03:53;97680.00;;;23.10
19666;BMP180;9980;51.020;7.772;2023-05-07T14:06:20;97696.00;;;23.10
19666;BMP180;9980;51.020;7.772;2023-05-07T14:08:47;97692.00;;;23.00
19666;BMP180;9980;51.020;7.772;2023-05-07T14:11:13;97699.00;;;22.90
19666;BMP180;9980;51.020;7.772;2023-05-07T14:13:39;97684.00;;;22.80
19666;BMP180;9980;51.020;7.772;2023-05-07T14:16:05;97682.00;;;22.80
19666;BMP180;9980;51.020;7.772;2023-05-07T14:18:32;97689.00;;;22.70
19666;BMP180;9980;51.020;7.772;2023-05-07T14:20:59;97688.00;;;22.70
19666;BMP180;9980;51.020;7.772;2023-05-07T14:23:25;97694.00;;;22.60
19666;BMP180;9980;51.020;7.772;2023-05-07T14:25:53;97685.00;;;22.60
19666;BMP180;9980;51.020;7.772;2023-05-07T14:28:19;97690.00;;;22.50
19666;BMP180;9980;51.020;7.772;2023-05-07T14:30:46;97672.00;;;22.50
19666;BMP180;9980;51.020;7.772;2023-05-07T14:33:12;97676.00;;;22.50
19666;BMP180;9980;51.020;7.772;2023-05-07T14:35:39;97674.00;;;22.40
19666;BMP180;9980;51.020;7.772;2023-05-07T14:38:05;97681.00;;;22.40
19666;BMP180;9980;51.020;7.772;2023-05-07T14:40:31;97683.00;;;22.40